Time;durP1;ratioP1;P1;durP2;ratioP2;P2;SDS_P1;SDS_P2;PMS_P1;PMS_P2;Temp;Humidity;BMP_temperature;BMP_pressure;BME280_temperature;BME280_humidity;BME280_pressure;Samples;Min_cycle;Max_cycle;Signal;HPM_P1;HPM_P2
2021/12/02 00:02:10;;;;;;;4.80;0.75;;;5.40;99.90;;;;;;6242150;22;20468;-62
2021/12/02 00:04:38;;;;;;;5.07;0.68;;;5.30;99.90;;;;;;6241373;22;20004;-62
2021/12/02 00:07:05;;;;;;;3.53;0.40;;;5.30;99.90;;;;;;6240138;23;20016;-62
2021/12/02 00:09:32;;;;;;;1.08;0.52;;;5.20;99.90;;;;;;6241300;22;20070;-64
2021/12/02 00:11:58;;;;;;;3.65;0.10;;;5.20;99.90;;;;;;6242198;22;20008;-62
2021/12/02 00:14:26;;;;;;;3.50;0.50;;;5.10;99.90;;;;;;6241876;22;20086;-63
2021/12/02 00:17:04;;;;;;;3.38;1.05;;;5.00;99.90;;;;;;6241830;22;20430;-63
2021/12/02 00:22:14;;;;;;;3.42;0.20;;;4.80;99.90;;;;;;6242083;22;20031;-63
2021/12/02 00:24:45;;;;;;;1.08;0.10;;;4.70;99.90;;;;;;6240927;22;20004;-63
2021/12/02 00:27:11;;;;;;;;;;;4.70;99.90;;;;;;6242583;22;20035;-62
2021/12/02 00:29:39;;;;;;;3.60;0.10;;;4.70;99.90;;;;;;6240148;22;20493;-63
2021/12/02 00:32:08;;;;;;;6.97;0.95;;;4.60;99.90;;;;;;6241823;22;20405;-62
2021/12/02 00:34:41;;;;;;;1.40;0.10;;;4.60;99.90;;;;;;6240990;22;20613;-62
2021/12/02 00:37:08;;;;;;;4.22;0.08;;;4.50;99.90;;;;;;6241931;22;20023;-62
2021/12/02 00:39:34;;;;;;;0.65;0.38;;;4.50;99.90;;;;;;6240851;22;20127;-62
2021/12/02 00:42:00;;;;;;;2.65;0.10;;;4.40;99.90;;;;;;6241811;22;20015;-63
2021/12/02 00:44:28;;;;;;;1.45;0.25;;;4.40;99.90;;;;;;6241161;22;20015;-63
2021/12/02 00:46:54;;;;;;;7.60;0.20;;;4.40;99.90;;;;;;6241081;22;20557;-62
2021/12/02 00:49:20;;;;;;;1.08;0.00;;;4.50;99.90;;;;;;6241996;22;20004;-64
2021/12/02 00:51:55;;;;;;;3.92;0.80;;;4.50;99.90;;;;;;6240684;22;20019;-62
2021/12/02 00:54:24;;;;;;;2.13;0.30;;;4.60;99.90;;;;;;6242066;22;20039;-62
2021/12/02 00:56:50;;;;;;;1.15;0.30;;;4.60;99.90;;;;;;6238610;22;20012;-62
2021/12/02 00:59:17;;;;;;;2.05;0.13;;;4.70;99.90;;;;;;6241987;22;20442;-62
2021/12/02 01:01:43;;;;;;;3.53;0.28;;;4.70;99.90;;;;;;6240693;22;20350;-63
2021/12/02 01:04:11;;;;;;;1.05;0.13;;;4.60;99.90;;;;;;6240116;23;20135;-63
2021/12/02 01:06:38;;;;;;;5.07;0.73;;;4.70;99.90;;;;;;6240430;22;20062;-62
2021/12/02 01:09:05;;;;;;;2.97;0.20;;;4.70;99.90;;;;;;6241546;22;20020;-62
2021/12/02 01:11:41;;;;;;;2.95;0.20;;;4.70;99.90;;;;;;6238257;22;20008;-63
2021/12/02 01:14:08;;;;;;;1.73;0.30;;;4.70;99.90;;;;;;6239591;23;20008;-62
2021/12/02 01:16:34;;;;;;;6.78;0.30;;;4.70;99.90;;;;;;6239595;22;20004;-62
2021/12/02 01:19:00;;;;;;;1.95;0.47;;;4.70;99.90;;;;;;6241576;22;20004;-62
2021/12/02 01:21:28;;;;;;;3.45;0.20;;;4.70;99.90;;;;;;6240972;22;20035;-63
2021/12/02 01:24:01;;;;;;;2.78;0.68;;;4.60;99.90;;;;;;6239192;23;20004;-62
2021/12/02 01:26:30;;;;;;;1.52;0.22;;;4.60;99.90;;;;;;6241254;22;20012;-63
2021/12/02 01:28:56;;;;;;;6.25;0.93;;;4.60;99.90;;;;;;6241127;22;20346;-62
2021/12/02 01:31:22;;;;;;;10.43;0.75;;;4.60;99.90;;;;;;6241443;22;20117;-62
2021/12/02 01:33:50;;;;;;;3.35;0.13;;;4.60;99.90;;;;;;6238744;22;20000;-62
2021/12/02 01:36:18;;;;;;;0.38;0.17;;;4.70;99.90;;;;;;6241372;22;20055;-62
2021/12/02 01:38:44;;;;;;;1.85;0.20;;;4.70;99.90;;;;;;6240244;22;20008;-62
2021/12/02 01:41:10;;;;;;;1.17;0.22;;;4.80;99.90;;;;;;6240993;22;20004;-63
2021/12/02 01:43:47;;;;;;;1.17;0.25;;;4.80;99.90;;;;;;6240228;22;20082;-64
2021/12/02 01:46:18;;;;;;;3.72;0.30;;;4.70;99.90;;;;;;6241325;22;20013;-64
2021/12/02 01:48:47;;;;;;;;;;;4.70;99.90;;;;;;6241180;22;20327;-62
2021/12/02 01:51:13;;;;;;;0.50;0.10;;;4.70;99.90;;;;;;6241470;22;19915;-65
2021/12/02 01:53:40;;;;;;;1.60;0.20;;;4.70;99.90;;;;;;6240048;22;20012;-63
2021/12/02 01:56:14;;;;;;;6.90;0.55;;;4.60;99.90;;;;;;6241479;22;20047;-62
2021/12/02 01:58:50;;;;;;;2.03;0.38;;;4.60;99.90;;;;;;6241016;22;20014;-63
2021/12/02 02:01:19;;;;;;;1.55;0.20;;;4.50;99.90;;;;;;6242089;22;20501;-62
2021/12/02 02:03:45;;;;;;;2.00;0.20;;;4.60;99.90;;;;;;6240442;22;20703;-63
2021/12/02 02:06:13;;;;;;;2.47;0.20;;;4.60;99.90;;;;;;6241900;22;20134;-63
2021/12/02 02:08:45;;;;;;;10.23;1.65;;;4.60;99.90;;;;;;6240677;22;20004;-62
2021/12/02 02:11:11;;;;;;;4.82;0.45;;;4.70;99.90;;;;;;6241142;22;20016;-63
2021/12/02 02:13:37;;;;;;;2.72;0.30;;;4.80;99.90;;;;;;6240497;22;20078;-63
2021/12/02 02:16:03;;;;;;;4.90;0.30;;;4.90;99.90;;;;;;6243164;22;20389;-62
2021/12/02 02:18:28;;;;;;;3.33;0.20;;;4.80;99.90;;;;;;6242774;22;20381;-63
2021/12/02 02:21:08;;;;;;;13.73;1.17;;;4.80;99.90;;;;;;6242152;22;20018;-62
2021/12/02 02:23:39;;;;;;;3.50;0.82;;;4.90;99.90;;;;;;6241544;23;20008;-64
2021/12/02 02:26:07;;;;;;;10.75;0.60;;;4.90;99.90;;;;;;6240316;23;20008;-63
2021/12/02 02:28:33;;;;;;;1.35;0.22;;;4.80;99.90;;;;;;6238501;23;20062;-63
2021/12/02 02:30:59;;;;;;;1.88;0.25;;;4.80;99.90;;;;;;6240364;22;20064;-62
2021/12/02 02:33:26;;;;;;;4.13;0.40;;;4.80;99.90;;;;;;6239342;23;20008;-63
2021/12/02 02:35:51;;;;;;;6.95;0.63;;;4.70;99.90;;;;;;6238989;23;20397;-65
2021/12/02 02:38:17;;;;;;;2.53;0.80;;;4.70;99.90;;;;;;6240204;23;20047;-64
2021/12/02 02:40:46;;;;;;;2.88;0.75;;;4.60;99.90;;;;;;6238820;22;20394;-62
2021/12/02 02:43:20;;;;;;;4.38;0.35;;;4.60;99.90;;;;;;6239669;23;20004;-62
2021/12/02 02:45:46;;;;;;;4.70;1.05;;;4.50;99.90;;;;;;6238611;23;20430;-63
2021/12/02 02:48:12;;;;;;;4.97;0.88;;;4.40;99.90;;;;;;6240212;23;20012;-62
2021/12/02 02:50:37;;;;;;;4.80;0.85;;;4.30;99.90;;;;;;6238633;22;20446;-63
2021/12/02 02:53:10;;;;;;;1.38;0.20;;;4.30;99.90;;;;;;6239793;23;20004;-63
2021/12/02 02:55:36;;;;;;;3.08;0.30;;;4.30;99.90;;;;;;6238601;23;20015;-62
2021/12/02 03:08:50;;;;;;;10.35;2.03;;;4.70;99.90;;;;;;6239743;22;20435;-63
2021/12/02 03:11:18;;;;;;;7.25;0.60;;;4.60;99.90;;;;;;6240630;22;20343;-64
2021/12/02 03:13:55;;;;;;;1.38;0.25;;;4.50;99.90;;;;;;6237773;22;20019;-62
2021/12/02 03:16:43;;;;;;;3.85;0.20;;;4.50;99.90;;;;;;6240139;22;20405;-63
2021/12/02 03:19:09;;;;;;;1.33;0.40;;;4.50;99.90;;;;;;6239765;22;20480;-63
2021/12/02 03:21:35;;;;;;;3.25;0.32;;;4.60;99.90;;;;;;6238415;22;20414;-64
2021/12/02 03:24:01;;;;;;;2.00;0.10;;;4.60;99.90;;;;;;6240635;22;20028;-62
2021/12/02 03:26:28;;;;;;;1.00;0.32;;;4.70;99.90;;;;;;6239863;22;20012;-65
2021/12/02 03:28:54;;;;;;;0.95;0.10;;;4.60;99.90;;;;;;6237654;23;20050;-64
2021/12/02 03:31:21;;;;;;;2.78;0.35;;;4.50;99.90;;;;;;6240424;22;20009;-62
2021/12/02 03:33:47;;;;;;;3.30;0.15;;;4.50;99.90;;;;;;6239277;22;20004;-63
2021/12/02 03:36:14;;;;;;;2.25;0.57;;;4.40;99.90;;;;;;6238351;22;20015;-63
2021/12/02 03:38:40;;;;;;;1.65;0.20;;;4.40;99.90;;;;;;6237519;22;20004;-63
2021/12/02 03:41:06;;;;;;;4.07;0.70;;;4.20;99.90;;;;;;6240263;22;20071;-63
2021/12/02 03:43:35;;;;;;;2.85;0.20;;;4.20;99.90;;;;;;6239619;22;20024;-64
2021/12/02 03:46:01;;;;;;;2.17;0.10;;;4.10;99.90;;;;;;6240100;22;20015;-63
2021/12/02 03:48:27;;;;;;;3.65;0.32;;;4.10;99.90;;;;;;6240039;22;20012;-62
2021/12/02 03:50:52;;;;;;;2.05;0.20;;;4.10;99.90;;;;;;6237846;22;20358;-63
2021/12/02 03:53:18;;;;;;;2.88;0.30;;;4.00;99.90;;;;;;6238274;23;20004;-63
2021/12/02 03:55:44;;;;;;;1.02;0.10;;;4.10;99.90;;;;;;6239056;22;21457;-63
2021/12/02 03:58:09;;;;;;;2.53;0.28;;;4.10;99.90;;;;;;6240886;22;20008;-64
2021/12/02 04:00:35;;;;;;;3.38;0.40;;;4.10;99.90;;;;;;6239467;22;20102;-63
2021/12/02 04:03:01;;;;;;;0.73;0.20;;;4.10;99.90;;;;;;6240659;22;20007;-63
2021/12/02 04:05:26;;;;;;;6.38;0.47;;;4.20;99.90;;;;;;6240201;22;20042;-62
2021/12/02 04:07:52;;;;;;;1.20;0.20;;;4.20;99.90;;;;;;6241619;22;20007;-62
2021/12/02 04:10:19;;;;;;;6.90;0.30;;;4.20;99.90;;;;;;6242491;22;20023;-63
2021/12/02 04:15:25;;;;;;;2.80;0.10;;;4.30;99.90;;;;;;6244260;22;20012;-63
2021/12/02 04:17:51;;;;;;;1.58;0.15;;;4.30;99.90;;;;;;6241436;22;20008;-62
2021/12/02 04:20:19;;;;;;;2.97;0.47;;;4.20;99.90;;;;;;6241988;22;20019;-63
2021/12/02 04:22:46;;;;;;;8.63;0.57;;;4.20;99.90;;;;;;6240968;22;20019;-63
2021/12/02 04:25:13;;;;;;;2.90;0.30;;;4.10;99.90;;;;;;6241514;22;20560;-64
2021/12/02 04:27:40;;;;;;;1.83;0.30;;;4.00;99.90;;;;;;6241136;22;20494;-64
2021/12/02 04:30:09;;;;;;;2.67;0.20;;;3.90;99.90;;;;;;6241779;22;20008;-63
2021/12/02 04:32:34;;;;;;;3.47;0.38;;;3.80;99.90;;;;;;6240713;22;20066;-64
2021/12/02 04:35:00;;;;;;;2.40;0.20;;;3.80;99.90;;;;;;6241741;22;20012;-63
2021/12/02 04:37:26;;;;;;;2.97;0.35;;;3.80;99.90;;;;;;6240920;22;20008;-63
2021/12/02 04:39:51;;;;;;;3.35;0.40;;;3.80;99.90;;;;;;6240167;22;20008;-63
2021/12/02 04:42:17;;;;;;;3.13;0.15;;;3.90;99.90;;;;;;6242341;22;20015;-63
2021/12/02 04:44:43;;;;;;;2.17;0.30;;;3.90;99.90;;;;;;6240899;22;20069;-62
2021/12/02 04:47:09;;;;;;;3.53;0.55;;;4.00;99.90;;;;;;6241601;22;20019;-63
2021/12/02 04:49:35;;;;;;;2.25;0.68;;;4.10;99.90;;;;;;6240350;22;20347;-62
2021/12/02 04:52:01;;;;;;;2.65;0.40;;;4.10;99.90;;;;;;6242132;22;20429;-63
2021/12/02 04:54:27;;;;;;;2.47;0.52;;;4.10;99.90;;;;;;6241523;22;20012;-63
2021/12/02 04:56:52;;;;;;;3.75;0.28;;;4.10;99.90;;;;;;6241092;22;20008;-62
2021/12/02 04:59:18;;;;;;;5.10;0.85;;;4.10;99.90;;;;;;6241894;22;20004;-62
2021/12/02 05:01:43;;;;;;;4.75;0.43;;;4.10;99.90;;;;;;6240404;22;20445;-62
2021/12/02 05:04:09;;;;;;;7.70;0.43;;;4.10;99.90;;;;;;6239639;22;20066;-63
2021/12/02 05:06:35;;;;;;;3.33;0.63;;;4.00;99.90;;;;;;6239943;22;20012;-63
2021/12/02 05:09:00;;;;;;;1.05;0.28;;;4.00;99.90;;;;;;6241308;22;20011;-63
2021/12/02 05:11:26;;;;;;;0.60;0.22;;;3.90;99.90;;;;;;6240718;22;20378;-63
2021/12/02 05:13:52;;;;;;;4.22;0.90;;;3.80;99.90;;;;;;6240733;22;20508;-63
2021/12/02 05:16:17;;;;;;;1.95;0.43;;;3.70;99.90;;;;;;6240341;22;20004;-62
2021/12/02 05:18:43;;;;;;;3.50;0.30;;;3.70;99.90;;;;;;6240532;22;20083;-63
2021/12/02 05:21:08;;;;;;;5.53;0.75;;;3.60;99.90;;;;;;6240871;22;20050;-63
2021/12/02 05:23:34;;;;;;;0.73;0.17;;;3.50;99.90;;;;;;6240003;22;20300;-63
2021/12/02 05:26:01;;;;;;;3.75;0.30;;;3.50;99.90;;;;;;6240782;22;20081;-62
2021/12/02 05:28:26;;;;;;;4.90;1.00;;;3.50;99.90;;;;;;6239970;22;20015;-63
2021/12/02 05:30:52;;;;;;;2.67;0.28;;;3.60;99.90;;;;;;6239886;22;20012;-63
2021/12/02 05:33:18;;;;;;;3.13;0.40;;;3.70;99.90;;;;;;6241284;22;20004;-63
2021/12/02 05:35:44;;;;;;;2.90;0.65;;;3.80;99.90;;;;;;6239410;22;20004;-62
2021/12/02 05:38:10;;;;;;;5.07;0.52;;;3.80;99.90;;;;;;6240749;22;20347;-62
2021/12/02 05:40:36;;;;;;;1.05;0.38;;;4.00;99.90;;;;;;6237460;22;20015;-63
2021/12/02 05:43:02;;;;;;;18.50;1.70;;;4.00;99.90;;;;;;6240684;22;20004;-63
2021/12/02 05:45:28;;;;;;;2.80;0.30;;;4.00;99.90;;;;;;6239974;22;20004;-63
2021/12/02 05:47:53;;;;;;;3.03;0.32;;;4.00;99.90;;;;;;6240447;22;20318;-63
2021/12/02 05:50:19;;;;;;;3.33;0.60;;;3.90;99.90;;;;;;6238729;22;20117;-64
2021/12/02 05:52:45;;;;;;;2.28;0.43;;;3.90;99.90;;;;;;6239873;22;20020;-63
2021/12/02 05:55:10;;;;;;;1.38;0.10;;;3.90;99.90;;;;;;6240677;22;20004;-62
2021/12/02 05:57:36;;;;;;;2.85;0.28;;;3.90;99.90;;;;;;6237979;22;20008;-62
2021/12/02 06:00:05;;;;;;;2.17;0.30;;;3.80;99.90;;;;;;6233205;22;20392;-62
2021/12/02 06:02:30;;;;;;;0.40;0.20;;;3.60;99.90;;;;;;6237365;22;20023;-65
2021/12/02 06:04:56;;;;;;;3.33;0.73;;;3.50;99.90;;;;;;6235516;23;20452;-62
2021/12/02 06:07:22;;;;;;;6.78;0.30;;;3.50;99.90;;;;;;6235594;22;20012;-62
2021/12/02 06:09:48;;;;;;;3.15;0.20;;;3.50;99.90;;;;;;6235527;22;20012;-63
2021/12/02 06:12:14;;;;;;;5.97;1.02;;;3.50;99.90;;;;;;6237757;22;20095;-62
2021/12/02 06:14:40;;;;;;;3.13;0.20;;;3.50;99.90;;;;;;6236675;22;20007;-63
2021/12/02 06:17:06;;;;;;;2.15;0.13;;;3.60;99.90;;;;;;6237732;22;20014;-62
2021/12/02 06:19:31;;;;;;;5.13;0.98;;;3.60;99.90;;;;;;6236419;22;20062;-63
2021/12/02 06:21:57;;;;;;;3.53;0.28;;;3.60;99.90;;;;;;6237326;22;20050;-63
2021/12/02 06:24:29;;;;;;;1.48;0.30;;;3.60;99.90;;;;;;6238108;22;20012;-62
2021/12/02 06:26:56;;;;;;;2.10;0.20;;;3.60;99.90;;;;;;6235800;22;20011;-63
2021/12/02 06:29:22;;;;;;;1.83;0.28;;;3.70;99.90;;;;;;6237816;22;20004;-62
2021/12/02 06:31:48;;;;;;;2.10;0.20;;;3.60;99.90;;;;;;6236514;22;20023;-63
2021/12/02 06:34:14;;;;;;;5.97;0.90;;;3.70;99.90;;;;;;6237977;22;20008;-62
2021/12/02 06:36:39;;;;;;;2.97;0.40;;;3.60;99.90;;;;;;6236098;22;20066;-63
2021/12/02 06:39:06;;;;;;;6.25;0.88;;;3.70;99.90;;;;;;6238557;22;20335;-62
2021/12/02 06:41:33;;;;;;;3.42;0.47;;;3.70;99.90;;;;;;6236321;22;20011;-62
2021/12/02 06:43:59;;;;;;;2.40;0.47;;;3.80;99.90;;;;;;6236190;23;20010;-64
2021/12/02 06:46:24;;;;;;;0.98;0.10;;;3.80;99.90;;;;;;6237599;22;20035;-62
2021/12/02 06:48:50;;;;;;;4.72;0.50;;;3.70;99.90;;;;;;6236743;22;20024;-63
2021/12/02 06:51:19;;;;;;;0.63;0.28;;;3.70;99.90;;;;;;6237390;22;20120;-62
2021/12/02 06:53:45;;;;;;;1.40;0.40;;;3.60;99.90;;;;;;6236750;22;20008;-62
2021/12/02 06:56:11;;;;;;;2.42;0.60;;;3.60;99.90;;;;;;6237410;22;20004;-63
2021/12/02 06:58:36;;;;;;;5.20;0.60;;;3.50;99.90;;;;;;6236382;22;20075;-63
2021/12/02 07:01:02;;;;;;;2.90;0.10;;;3.40;99.90;;;;;;6237256;22;20099;-72
2021/12/02 07:03:28;;;;;;;1.33;0.30;;;3.30;99.90;;;;;;6237581;22;20008;-62
2021/12/02 07:05:55;;;;;;;4.55;0.20;;;3.30;99.90;;;;;;6236486;22;20015;-63
2021/12/02 07:08:21;;;;;;;0.80;0.30;;;3.30;99.90;;;;;;6237761;22;20004;-62
2021/12/02 07:10:47;;;;;;;5.63;0.60;;;3.30;99.90;;;;;;6235280;22;20012;-64
2021/12/02 07:13:13;;;;;;;2.47;0.25;;;3.20;99.90;;;;;;6237308;22;20083;-62
2021/12/02 07:15:50;;;;;;;3.15;0.65;;;3.30;99.90;;;;;;6235127;22;20011;-64
2021/12/02 07:18:16;;;;;;;2.03;0.25;;;3.30;99.90;;;;;;6237105;22;20008;-63
2021/12/02 07:20:44;;;;;;;2.08;0.40;;;3.50;99.90;;;;;;6235142;22;20059;-62
2021/12/02 07:23:10;;;;;;;5.68;0.60;;;3.50;99.90;;;;;;6237796;22;20008;-63
2021/12/02 07:25:40;;;;;;;0.57;0.20;;;3.50;99.90;;;;;;6236087;22;20058;-63
2021/12/02 07:28:06;;;;;;;4.50;1.30;;;3.60;99.90;;;;;;6236651;22;20335;-63
2021/12/02 07:30:32;;;;;;;4.13;0.45;;;3.60;99.90;;;;;;6236100;22;20004;-66
2021/12/02 07:32:59;;;;;;;6.05;0.40;;;3.60;99.90;;;;;;6236814;22;20438;-62
2021/12/02 07:35:25;;;;;;;7.93;1.23;;;3.70;99.90;;;;;;6236410;22;20115;-63
2021/12/02 07:37:59;;;;;;;2.60;0.70;;;3.60;99.90;;;;;;6235333;22;20027;-62
2021/12/02 07:40:26;;;;;;;8.10;0.90;;;3.60;99.90;;;;;;6236266;22;20579;-63
2021/12/02 07:42:52;;;;;;;4.45;0.38;;;3.60;99.90;;;;;;6238168;22;20012;-63
2021/12/02 07:45:20;;;;;;;5.60;1.00;;;3.60;99.90;;;;;;6238636;22;20464;-62
2021/12/02 07:47:46;;;;;;;3.72;0.50;;;3.60;99.90;;;;;;6237745;22;20068;-62
2021/12/02 07:50:14;;;;;;;1.58;0.30;;;3.60;99.90;;;;;;6239052;22;20244;-63
2021/12/02 07:52:45;;;;;;;5.47;1.55;;;3.60;99.90;;;;;;6236396;22;20107;-63
2021/12/02 07:55:13;;;;;;;2.53;0.22;;;3.70;99.90;;;;;;6238758;22;20039;-63
2021/12/02 07:57:42;;;;;;;5.40;0.95;;;3.60;99.90;;;;;;6238189;22;20397;-62
2021/12/02 08:00:09;;;;;;;2.45;0.60;;;3.60;99.90;;;;;;6236709;22;20005;-63
2021/12/02 08:02:35;;;;;;;2.92;0.60;;;3.50;99.90;;;;;;6235318;22;20079;-62
2021/12/02 08:05:02;;;;;;;4.45;0.93;;;3.40;99.90;;;;;;6238484;22;20019;-63
2021/12/02 08:07:27;;;;;;;3.53;0.52;;;3.40;99.90;;;;;;6237470;22;20016;-62
2021/12/02 08:09:53;;;;;;;6.43;0.22;;;3.40;99.90;;;;;;6238522;22;20088;-63
2021/12/02 08:12:19;;;;;;;2.42;0.40;;;3.40;99.90;;;;;;6237816;22;20016;-64
2021/12/02 08:14:44;;;;;;;3.45;0.50;;;3.40;99.90;;;;;;6237524;22;20059;-64
2021/12/02 08:17:10;;;;;;;3.50;0.50;;;3.40;99.90;;;;;;6238443;22;20004;-64
2021/12/02 08:19:36;;;;;;;1.05;0.40;;;3.40;99.90;;;;;;6237460;22;20083;-63
2021/12/02 08:22:01;;;;;;;2.00;0.40;;;3.50;99.90;;;;;;6236284;23;20105;-64
2021/12/02 08:24:27;;;;;;;2.90;0.52;;;3.50;99.90;;;;;;6237976;22;20019;-63
2021/12/02 08:26:54;;;;;;;1.48;0.40;;;3.50;99.90;;;;;;6237327;22;20016;-63
2021/12/02 08:29:21;;;;;;;1.08;0.20;;;3.50;99.90;;;;;;6236263;22;20015;-64
2021/12/02 08:31:48;;;;;;;1.65;0.20;;;3.50;99.90;;;;;;6236999;22;20369;-62
2021/12/02 08:34:13;;;;;;;3.65;0.28;;;3.60;99.90;;;;;;6238435;22;20082;-62
2021/12/02 08:36:49;;;;;;;0.30;0.10;;;3.70;99.90;;;;;;6236740;22;20032;-63
2021/12/02 08:39:22;;;;;;;3.70;0.30;;;3.70;99.90;;;;;;6239192;22;20345;-63
2021/12/02 08:41:48;;;;;;;1.38;0.28;;;3.70;99.90;;;;;;6235894;22;20012;-62
2021/12/02 08:44:16;;;;;;;8.23;0.55;;;3.70;99.90;;;;;;6237865;22;20014;-63
2021/12/02 08:46:42;;;;;;;2.15;0.40;;;3.70;99.90;;;;;;6237345;22;20012;-63
2021/12/02 08:49:08;;;;;;;2.15;0.20;;;3.60;99.90;;;;;;6238382;22;20058;-62
2021/12/02 08:51:34;;;;;;;0.73;0.20;;;3.50;99.90;;;;;;6236453;22;20501;-63
2021/12/02 08:53:59;;;;;;;4.43;0.05;;;3.40;99.90;;;;;;6238595;22;20035;-62
2021/12/02 08:56:25;;;;;;;4.75;0.13;;;3.20;99.90;;;;;;6237733;22;20011;-62
2021/12/02 08:58:52;;;;;;;0.95;0.13;;;3.10;99.90;;;;;;6236781;22;20101;-62
2021/12/02 09:01:18;;;;;;;6.05;0.95;;;3.10;99.90;;;;;;6238066;22;20019;-62
2021/12/02 09:03:43;;;;;;;1.15;0.20;;;3.00;99.90;;;;;;6235236;22;20055;-62
2021/12/02 09:06:11;;;;;;;0.82;0.10;;;3.00;99.90;;;;;;6237454;22;20004;-62
2021/12/02 09:08:39;;;;;;;1.27;0.20;;;3.00;99.90;;;;;;6237201;22;20230;-62
2021/12/02 09:11:05;;;;;;;0.57;0.20;;;3.10;99.90;;;;;;6238002;22;20008;-64
2021/12/02 09:13:31;;;;;;;0.85;0.20;;;3.30;99.90;;;;;;6236582;22;20036;-64
2021/12/02 09:15:57;;;;;;;1.52;0.10;;;3.50;99.90;;;;;;6237558;22;20339;-63
2021/12/02 09:18:23;;;;;;;2.92;0.20;;;3.50;99.90;;;;;;6238122;22;20004;-62
2021/12/02 09:20:48;;;;;;;1.50;0.63;;;3.70;99.90;;;;;;6236963;22;20029;-62
2021/12/02 09:23:15;;;;;;;0.98;0.13;;;3.60;99.90;;;;;;6238365;22;20012;-62
2021/12/02 09:25:41;;;;;;;0.82;0.17;;;3.60;99.90;;;;;;6236315;22;20054;-62
2021/12/02 09:28:07;;;;;;;3.35;0.30;;;3.70;99.90;;;;;;6236097;23;20011;-62
2021/12/02 09:30:32;;;;;;;0.77;0.17;;;3.70;99.90;;;;;;6236823;22;20114;-63
2021/12/02 09:32:58;;;;;;;1.55;0.10;;;3.70;99.90;;;;;;6236172;23;20516;-64
2021/12/02 09:35:24;;;;;;;0.52;0.20;;;3.70;99.90;;;;;;6237474;22;20000;-62
2021/12/02 09:37:51;;;;;;;1.58;0.30;;;3.70;99.90;;;;;;6236654;22;20346;-63
2021/12/02 09:40:18;;;;;;;6.93;0.75;;;3.80;99.90;;;;;;6237560;22;20016;-61
2021/12/02 09:42:44;;;;;;;1.05;0.10;;;3.90;99.90;;;;;;6236665;22;20012;-62
2021/12/02 09:45:11;;;;;;;0.10;0.10;;;3.90;99.90;;;;;;6237694;22;20031;-62
2021/12/02 09:47:39;;;;;;;0.93;0.20;;;3.80;99.90;;;;;;6236250;22;20016;-62
2021/12/02 09:50:13;;;;;;;0.77;0.10;;;3.70;99.90;;;;;;6237660;22;20069;-63
2021/12/02 09:52:40;;;;;;;4.00;0.38;;;3.60;99.90;;;;;;6236454;22;20012;-63
2021/12/02 09:55:19;;;;;;;2.75;0.20;;;3.50;99.90;;;;;;6237257;22;20015;-63
2021/12/02 09:57:50;;;;;;;2.85;0.30;;;3.40;99.90;;;;;;6237294;22;20542;-62
2021/12/02 10:00:22;;;;;;;2.05;0.20;;;3.40;99.90;;;;;;6237852;22;20107;-62
2021/12/02 10:03:18;;;;;;;0.73;0.10;;;3.30;99.90;;;;;;6234154;22;20019;-62
2021/12/02 10:05:42;;;;;;;0.65;0.10;;;3.30;99.90;;;;;;6236408;22;20008;-62
2021/12/02 10:08:12;;;;;;;0.65;0.20;;;3.20;99.90;;;;;;6238121;22;20095;-65
2021/12/02 10:10:52;;;;;;;0.10;0.10;;;3.20;99.90;;;;;;6236399;22;20019;-65
2021/12/02 10:13:31;;;;;;;2.25;0.25;;;3.30;99.90;;;;;;6236907;22;20031;-64
2021/12/02 10:16:32;;;;;;;1.23;0.25;;;3.60;99.90;;;;;;6236632;22;20000;-62
2021/12/02 10:21:38;;;;;;;0.30;0.00;;;4.10;99.90;;;;;;6238085;22;19903;-65
2021/12/02 10:24:16;;;;;;;3.63;0.10;;;4.20;99.90;;;;;;6233670;22;20466;-64
2021/12/02 10:26:46;;;;;;;1.95;0.25;;;4.20;99.90;;;;;;6234092;22;20014;-62
2021/12/02 10:29:15;;;;;;;0.83;0.10;;;4.20;99.90;;;;;;6235554;22;20012;-64
2021/12/02 10:31:46;;;;;;;0.75;0.10;;;4.20;99.90;;;;;;6229405;22;20038;-62
2021/12/02 10:34:13;;;;;;;2.30;0.10;;;4.20;99.90;;;;;;6235758;22;20007;-63
2021/12/02 10:36:43;;;;;;;0.50;0.13;;;4.10;99.90;;;;;;6233728;22;20066;-62
2021/12/02 10:39:25;;;;;;;0.20;0.10;;;4.00;99.90;;;;;;6235434;22;20012;-63
2021/12/02 10:42:05;;;;;;;0.65;0.15;;;3.80;99.90;;;;;;6234157;22;20054;-62
2021/12/02 10:44:34;;;;;;;3.60;0.20;;;3.60;99.90;;;;;;6233650;22;20024;-61
2021/12/02 10:47:01;;;;;;;0.57;0.20;;;3.40;99.90;;;;;;6234883;22;20004;-61
2021/12/02 10:49:32;;;;;;;1.10;0.05;;;3.30;99.90;;;;;;6234105;22;20008;-63
2021/12/02 10:52:01;;;;;;;0.45;0.20;;;3.20;99.90;;;;;;6234746;22;20459;-63
2021/12/02 10:54:33;;;;;;;0.45;0.15;;;3.30;99.90;;;;;;6235895;22;20044;-63
2021/12/02 10:57:11;;;;;;;0.25;0.10;;;3.30;99.90;;;;;;6231470;22;20012;-63
2021/12/02 10:59:49;;;;;;;1.08;0.20;;;3.30;99.90;;;;;;6231006;22;20422;-64
2021/12/02 11:02:30;;;;;;;3.20;0.28;;;3.40;99.90;;;;;;6233315;22;20008;-62
2021/12/02 11:04:58;;;;;;;0.85;0.20;;;3.40;99.90;;;;;;6233308;22;20015;-63
2021/12/02 11:07:33;;;;;;;2.00;0.35;;;3.50;99.90;;;;;;6233283;22;20400;-64
2021/12/02 11:10:01;;;;;;;2.47;0.40;;;3.50;99.90;;;;;;6234349;22;20016;-62
2021/12/02 11:12:29;;;;;;;1.05;0.20;;;3.60;99.90;;;;;;6232113;22;20077;-63
2021/12/02 11:14:55;;;;;;;2.00;0.20;;;3.60;99.90;;;;;;6234755;22;20347;-62
2021/12/02 11:17:21;;;;;;;0.85;0.13;;;3.70;99.90;;;;;;6236415;22;20012;-62
2021/12/02 11:19:48;;;;;;;1.75;0.50;;;3.70;99.90;;;;;;6233923;22;20016;-62
2021/12/02 11:22:17;;;;;;;1.65;0.20;;;3.80;99.90;;;;;;6236374;22;20014;-62
2021/12/02 11:24:43;;;;;;;4.00;0.60;;;3.90;99.90;;;;;;6235602;22;20046;-62
2021/12/02 11:27:11;;;;;;;0.93;0.28;;;3.90;99.90;;;;;;6235648;22;20016;-63
2021/12/02 11:30:04;;;;;;;2.20;0.65;;;3.90;99.90;;;;;;6235080;22;20511;-62
2021/12/02 11:32:51;;;;;;;0.82;0.38;;;3.90;99.90;;;;;;6236123;22;20350;-62
2021/12/02 11:35:17;;;;;;;0.60;0.35;;;3.90;99.90;;;;;;6235399;22;20015;-62
2021/12/02 11:37:46;;;;;;;0.93;0.45;;;4.00;99.90;;;;;;6233873;22;20401;-62
2021/12/02 11:40:20;;;;;;;1.13;0.30;;;3.90;99.90;;;;;;6235454;22;20015;-63
2021/12/02 11:42:47;;;;;;;2.58;0.30;;;3.90;99.90;;;;;;6232072;22;20027;-64
2021/12/02 11:45:15;;;;;;;5.32;0.50;;;3.80;99.90;;;;;;6235789;22;20004;-62
2021/12/02 11:47:41;;;;;;;3.65;0.32;;;3.80;99.90;;;;;;6232348;22;20012;-62
2021/12/02 11:50:09;;;;;;;2.75;1.20;;;3.70;99.90;;;;;;6231874;22;20012;-63
2021/12/02 11:52:37;;;;;;;1.52;0.68;;;3.70;99.90;;;;;;6232307;22;20066;-62
2021/12/02 11:55:10;;;;;;;6.68;0.60;;;3.70;99.90;;;;;;6233710;22;20016;-62
2021/12/02 11:57:37;;;;;;;1.25;0.45;;;3.60;99.90;;;;;;6234534;22;20040;-62
2021/12/02 12:00:09;;;;;;;1.17;0.35;;;3.60;99.90;;;;;;6236125;22;20004;-63
2021/12/02 12:02:36;;;;;;;2.40;0.35;;;3.60;99.90;;;;;;6235460;22;20079;-64
2021/12/02 12:05:04;;;;;;;1.65;0.60;;;3.60;99.90;;;;;;6235190;22;20004;-61
2021/12/02 12:07:41;;;;;;;1.85;1.08;;;3.60;99.90;;;;;;6236464;22;20023;-62
2021/12/02 12:10:13;;;;;;;4.18;0.60;;;3.60;99.90;;;;;;6237580;22;20326;-62
2021/12/02 12:12:42;;;;;;;1.48;0.40;;;3.60;99.90;;;;;;6237245;22;20095;-63
2021/12/02 12:15:48;;;;;;;2.63;0.40;;;3.60;99.90;;;;;;6237885;22;20563;-62
2021/12/02 12:18:40;;;;;;;1.83;0.50;;;3.70;99.90;;;;;;6238115;22;20004;-62
2021/12/02 12:21:07;;;;;;;2.45;0.63;;;3.70;99.90;;;;;;6235386;22;20012;-63
2021/12/02 12:23:34;;;;;;;2.25;0.47;;;3.80;99.90;;;;;;6237480;22;20023;-63
2021/12/02 12:26:07;;;;;;;2.85;0.55;;;3.90;99.90;;;;;;6236723;22;20078;-62
2021/12/02 12:34:40;;;;;;;2.70;0.73;;;4.00;99.90;;;;;;6238177;22;20028;-66
2021/12/02 12:37:27;;;;;;;3.75;0.50;;;4.20;99.90;;;;;;6237838;22;20464;-63
2021/12/02 12:40:15;;;;;;;0.47;0.22;;;4.30;99.90;;;;;;6237743;22;20016;-62
2021/12/02 12:43:02;;;;;;;2.85;0.47;;;4.50;99.90;;;;;;6237070;22;20032;-62
2021/12/02 12:45:39;;;;;;;1.00;0.25;;;4.50;99.90;;;;;;6237576;22;20023;-64
2021/12/02 12:48:08;;;;;;;1.35;0.30;;;4.70;99.90;;;;;;6237802;22;20011;-61
2021/12/02 12:50:47;;;;;;;0.77;0.40;;;4.70;99.90;;;;;;6235112;22;20450;-63
2021/12/02 12:53:19;;;;;;;1.83;0.30;;;4.60;99.90;;;;;;6237917;22;20027;-62
2021/12/02 12:55:52;;;;;;;2.17;0.65;;;4.50;99.90;;;;;;6237011;22;20097;-66
2021/12/02 12:58:23;;;;;;;0.20;0.10;;;4.50;99.90;;;;;;6238691;22;20023;-62
2021/12/02 13:00:48;;;;;;;;;;;4.60;99.90;;;;;;6237563;22;20327;-64
2021/12/02 13:03:30;;;;;;;1.42;0.20;;;4.60;99.90;;;;;;6238184;22;19908;-62
2021/12/02 13:06:18;;;;;;;3.20;0.75;;;4.60;99.90;;;;;;6236704;22;20008;-62
2021/12/02 13:08:47;;;;;;;1.88;0.45;;;4.70;99.90;;;;;;6237402;22;20409;-63
2021/12/02 13:11:19;;;;;;;4.72;0.50;;;4.80;99.90;;;;;;6237997;22;20001;-62
2021/12/02 13:13:46;;;;;;;1.67;0.40;;;4.90;99.90;;;;;;6235032;22;20016;-62
2021/12/02 13:16:15;;;;;;;1.40;0.20;;;4.90;99.90;;;;;;6237753;22;20484;-62
2021/12/02 13:18:50;;;;;;;1.45;0.20;;;5.00;99.90;;;;;;6237159;22;20008;-62
2021/12/02 13:21:31;;;;;;;1.67;0.32;;;5.00;99.90;;;;;;6238220;22;20087;-64
2021/12/02 13:24:20;;;;;;;2.70;0.20;;;5.10;99.90;;;;;;6236722;22;20091;-62
2021/12/02 13:26:57;;;;;;;1.55;0.17;;;5.20;99.90;;;;;;6236936;22;20012;-62
2021/12/02 13:29:26;;;;;;;1.48;0.30;;;5.20;99.90;;;;;;6237515;22;20015;-62
2021/12/02 13:31:55;;;;;;;0.77;0.40;;;5.30;99.90;;;;;;6237178;22;20012;-62